sensor_id;sensor_type;location;lat;lon;timestamp;P1;durP1;ratioP1;P2;durP2;ratioP2
30896;SDS011;64229;52.246;21.054;2024-01-30T00:00:54;45.83;;;19.00;;
30896;SDS011;64229;52.246;21.054;2024-01-30T00:03:19;43.63;;;18.83;;
30896;SDS011;64229;52.246;21.054;2024-01-30T00:05:44;46.85;;;17.48;;
30896;SDS011;64229;52.246;21.054;2024-01-30T00:08:10;49.20;;;17.58;;
30896;SDS011;64229;52.246;21.054;2024-01-30T00:10:35;45.80;;;17.80;;
30896;SDS011;64229;52.246;21.054;2024-01-30T00:13:01;46.88;;;17.80;;
30896;SDS011;64229;52.246;21.054;2024-01-30T00:15:27;48.78;;;19.48;;
30896;SDS011;64229;52.246;21.054;2024-01-30T00:17:53;45.47;;;17.92;;
30896;SDS011;64229;52.246;21.054;2024-01-30T00:20:18;48.15;;;18.00;;
30896;SDS011;64229;52.246;21.054;2024-01-30T00:22:44;49.60;;;17.98;;
30896;SDS011;64229;52.246;21.054;2024-01-30T00:25:09;52.88;;;19.85;;
30896;SDS011;64229;52.246;21.054;2024-01-30T00:27:35;50.22;;;17.42;;
30896;SDS011;64229;52.246;21.054;2024-01-30T00:30:00;42.58;;;17.10;;
30896;SDS011;64229;52.246;21.054;2024-01-30T00:32:26;47.03;;;17.85;;
30896;SDS011;64229;52.246;21.054;2024-01-30T00:34:51;48.28;;;17.63;;
30896;SDS011;64229;52.246;21.054;2024-01-30T00:37:16;44.42;;;17.77;;
30896;SDS011;64229;52.246;21.054;2024-01-30T00:39:42;47.75;;;18.08;;
30896;SDS011;64229;52.246;21.054;2024-01-30T00:42:07;45.60;;;17.77;;
30896;SDS011;64229;52.246;21.054;2024-01-30T00:44:34;47.85;;;17.27;;
30896;SDS011;64229;52.246;21.054;2024-01-30T00:47:02;48.67;;;17.02;;
30896;SDS011;64229;52.246;21.054;2024-01-30T00:49:28;48.03;;;18.08;;
30896;SDS011;64229;52.246;21.054;2024-01-30T00:51:53;62.67;;;23.75;;
30896;SDS011;64229;52.246;21.054;2024-01-30T01:56:10;41.95;;;16.60;;
30896;SDS011;64229;52.246;21.054;2024-01-30T01:58:36;48.42;;;17.65;;
30896;SDS011;64229;52.246;21.054;2024-01-30T02:01:03;44.33;;;17.15;;
30896;SDS011;64229;52.246;21.054;2024-01-30T02:03:30;44.05;;;16.48;;
30896;SDS011;64229;52.246;21.054;2024-01-30T02:05:55;47.63;;;18.33;;
30896;SDS011;64229;52.246;21.054;2024-01-30T02:08:22;48.88;;;18.45;;
30896;SDS011;64229;52.246;21.054;2024-01-30T02:10:48;40.33;;;15.73;;
30896;SDS011;64229;52.246;21.054;2024-01-30T02:13:13;50.80;;;17.67;;
30896;SDS011;64229;52.246;21.054;2024-01-30T02:15:39;42.35;;;16.80;;
30896;SDS011;64229;52.246;21.054;2024-01-30T02:18:04;42.33;;;16.15;;
30896;SDS011;64229;52.246;21.054;2024-01-30T02:20:30;44.65;;;17.27;;
30896;SDS011;64229;52.246;21.054;2024-01-30T02:22:56;45.00;;;16.02;;
30896;SDS011;64229;52.246;21.054;2024-01-30T02:25:39;42.70;;;16.40;;
30896;SDS011;64229;52.246;21.054;2024-01-30T02:28:11;45.55;;;16.60;;
30896;SDS011;64229;52.246;21.054;2024-01-30T02:30:38;39.63;;;15.43;;
30896;SDS011;64229;52.246;21.054;2024-01-30T02:33:04;41.63;;;16.75;;
30896;SDS011;64229;52.246;21.054;2024-01-30T02:35:29;40.28;;;16.70;;
30896;SDS011;64229;52.246;21.054;2024-01-30T02:37:54;41.53;;;17.17;;
30896;SDS011;64229;52.246;21.054;2024-01-30T02:40:20;45.50;;;16.83;;
30896;SDS011;64229;52.246;21.054;2024-01-30T02:42:45;39.97;;;16.30;;
30896;SDS011;64229;52.246;21.054;2024-01-30T02:45:10;43.75;;;17.17;;
30896;SDS011;64229;52.246;21.054;2024-01-30T02:47:36;45.70;;;16.42;;
30896;SDS011;64229;52.246;21.054;2024-01-30T02:50:02;43.45;;;16.63;;
30896;SDS011;64229;52.246;21.054;2024-01-30T02:52:28;42.33;;;16.52;;
30896;SDS011;64229;52.246;21.054;2024-01-30T02:54:53;39.35;;;16.02;;
30896;SDS011;64229;52.246;21.054;2024-01-30T02:57:18;47.47;;;16.52;;
30896;SDS011;64229;52.246;21.054;2024-01-30T02:59:44;49.45;;;17.08;;
30896;SDS011;64229;52.246;21.054;2024-01-30T03:02:09;40.55;;;16.08;;
30896;SDS011;64229;52.246;21.054;2024-01-30T03:04:34;42.45;;;16.92;;
30896;SDS011;64229;52.246;21.054;2024-01-30T03:07:00;42.60;;;16.83;;
30896;SDS011;64229;52.246;21.054;2024-01-30T03:09:25;41.08;;;15.70;;
30896;SDS011;64229;52.246;21.054;2024-01-30T03:11:50;46.63;;;17.33;;
30896;SDS011;64229;52.246;21.054;2024-01-30T03:14:16;41.75;;;16.15;;
30896;SDS011;64229;52.246;21.054;2024-01-30T03:16:41;42.63;;;16.88;;
30896;SDS011;64229;52.246;21.054;2024-01-30T03:19:06;49.22;;;16.30;;
30896;SDS011;64229;52.246;21.054;2024-01-30T03:21:35;43.88;;;16.20;;
30896;SDS011;64229;52.246;21.054;2024-01-30T03:24:00;40.45;;;16.40;;
30896;SDS011;64229;52.246;21.054;2024-01-30T03:26:26;42.20;;;15.45;;
30896;SDS011;64229;52.246;21.054;2024-01-30T03:28:51;40.13;;;16.02;;
30896;SDS011;64229;52.246;21.054;2024-01-30T03:31:16;41.70;;;15.50;;
30896;SDS011;64229;52.246;21.054;2024-01-30T03:33:42;46.67;;;15.85;;
30896;SDS011;64229;52.246;21.054;2024-01-30T03:36:08;42.80;;;16.15;;
30896;SDS011;64229;52.246;21.054;2024-01-30T03:38:34;43.70;;;16.25;;
30896;SDS011;64229;52.246;21.054;2024-01-30T03:41:00;41.38;;;16.02;;
30896;SDS011;64229;52.246;21.054;2024-01-30T03:43:25;43.60;;;16.42;;
30896;SDS011;64229;52.246;21.054;2024-01-30T03:45:51;42.88;;;16.00;;
30896;SDS011;64229;52.246;21.054;2024-01-30T03:48:16;41.30;;;17.10;;
30896;SDS011;64229;52.246;21.054;2024-01-30T03:50:42;38.25;;;15.52;;
30896;SDS011;64229;52.246;21.054;2024-01-30T03:53:07;42.20;;;17.60;;
30896;SDS011;64229;52.246;21.054;2024-01-30T03:55:32;43.70;;;16.10;;
30896;SDS011;64229;52.246;21.054;2024-01-30T03:57:58;47.38;;;15.50;;
30896;SDS011;64229;52.246;21.054;2024-01-30T04:00:23;40.22;;;17.02;;
30896;SDS011;64229;52.246;21.054;2024-01-30T04:02:49;45.00;;;16.17;;
30896;SDS011;64229;52.246;21.054;2024-01-30T04:05:16;50.67;;;17.55;;
30896;SDS011;64229;52.246;21.054;2024-01-30T04:07:41;41.75;;;16.13;;
30896;SDS011;64229;52.246;21.054;2024-01-30T04:10:07;41.20;;;15.77;;
30896;SDS011;64229;52.246;21.054;2024-01-30T04:12:33;42.95;;;16.75;;
30896;SDS011;64229;52.246;21.054;2024-01-30T04:14:58;42.42;;;16.92;;
30896;SDS011;64229;52.246;21.054;2024-01-30T04:17:23;48.55;;;16.63;;
30896;SDS011;64229;52.246;21.054;2024-01-30T04:19:49;42.17;;;17.08;;
30896;SDS011;64229;52.246;21.054;2024-01-30T04:22:14;43.50;;;17.23;;
30896;SDS011;64229;52.246;21.054;2024-01-30T04:24:39;48.17;;;17.48;;
30896;SDS011;64229;52.246;21.054;2024-01-30T04:27:05;48.90;;;17.00;;
30896;SDS011;64229;52.246;21.054;2024-01-30T04:29:30;45.28;;;15.85;;
30896;SDS011;64229;52.246;21.054;2024-01-30T04:31:57;42.03;;;17.55;;
30896;SDS011;64229;52.246;21.054;2024-01-30T04:34:22;45.05;;;17.40;;
30896;SDS011;64229;52.246;21.054;2024-01-30T04:36:47;47.53;;;16.85;;
30896;SDS011;64229;52.246;21.054;2024-01-30T04:39:13;46.97;;;16.77;;
30896;SDS011;64229;52.246;21.054;2024-01-30T04:41:38;40.05;;;16.75;;
30896;SDS011;64229;52.246;21.054;2024-01-30T04:44:03;54.20;;;17.95;;
30896;SDS011;64229;52.246;21.054;2024-01-30T04:46:29;49.20;;;17.73;;
30896;SDS011;64229;52.246;21.054;2024-01-30T04:48:54;41.83;;;17.73;;
30896;SDS011;64229;52.246;21.054;2024-01-30T04:51:19;43.97;;;17.65;;
30896;SDS011;64229;52.246;21.054;2024-01-30T04:53:45;44.40;;;17.35;;
30896;SDS011;64229;52.246;21.054;2024-01-30T04:56:10;51.65;;;18.88;;
30896;SDS011;64229;52.246;21.054;2024-01-30T04:58:35;46.65;;;17.35;;
30896;SDS011;64229;52.246;21.054;2024-01-30T05:01:01;43.50;;;16.65;;
30896;SDS011;64229;52.246;21.054;2024-01-30T05:03:27;50.72;;;17.40;;
30896;SDS011;64229;52.246;21.054;2024-01-30T05:05:52;53.75;;;17.10;;
30896;SDS011;64229;52.246;21.054;2024-01-30T05:08:18;43.20;;;17.92;;
30896;SDS011;64229;52.246;21.054;2024-01-30T05:10:43;48.30;;;17.10;;
30896;SDS011;64229;52.246;21.054;2024-01-30T05:13:09;53.63;;;18.58;;
30896;SDS011;64229;52.246;21.054;2024-01-30T05:15:34;45.15;;;17.25;;
30896;SDS011;64229;52.246;21.054;2024-01-30T05:18:00;41.22;;;16.08;;
30896;SDS011;64229;52.246;21.054;2024-01-30T05:20:25;47.70;;;17.95;;
30896;SDS011;64229;52.246;21.054;2024-01-30T05:22:53;46.63;;;17.88;;
30896;SDS011;64229;52.246;21.054;2024-01-30T05:25:18;49.63;;;17.90;;
30896;SDS011;64229;52.246;21.054;2024-01-30T05:27:44;40.25;;;15.32;;
30896;SDS011;64229;52.246;21.054;2024-01-30T05:30:09;47.53;;;17.15;;
30896;SDS011;64229;52.246;21.054;2024-01-30T05:32:35;45.45;;;17.52;;
30896;SDS011;64229;52.246;21.054;2024-01-30T05:35:00;47.47;;;16.60;;
30896;SDS011;64229;52.246;21.054;2024-01-30T05:37:26;38.05;;;15.60;;
30896;SDS011;64229;52.246;21.054;2024-01-30T05:39:51;44.13;;;16.77;;
30896;SDS011;64229;52.246;21.054;2024-01-30T05:42:16;45.15;;;16.92;;
30896;SDS011;64229;52.246;21.054;2024-01-30T05:44:42;53.33;;;17.38;;
30896;SDS011;64229;52.246;21.054;2024-01-30T05:47:07;46.03;;;17.08;;
30896;SDS011;64229;52.246;21.054;2024-01-30T05:49:33;44.55;;;16.92;;
30896;SDS011;64229;52.246;21.054;2024-01-30T05:51:58;42.58;;;16.10;;
30896;SDS011;64229;52.246;21.054;2024-01-30T05:54:23;50.60;;;18.95;;
30896;SDS011;64229;52.246;21.054;2024-01-30T05:56:49;43.78;;;17.80;;
30896;SDS011;64229;52.246;21.054;2024-01-30T05:59:14;52.00;;;17.67;;
30896;SDS011;64229;52.246;21.054;2024-01-30T06:01:45;48.83;;;17.08;;
30896;SDS011;64229;52.246;21.054;2024-01-30T06:04:11;46.80;;;16.23;;
30896;SDS011;64229;52.246;21.054;2024-01-30T06:06:37;46.75;;;17.23;;
30896;SDS011;64229;52.246;21.054;2024-01-30T06:09:02;45.03;;;16.98;;
30896;SDS011;64229;52.246;21.054;2024-01-30T06:11:28;38.03;;;16.35;;
30896;SDS011;64229;52.246;21.054;2024-01-30T06:13:53;42.13;;;17.00;;
30896;SDS011;64229;52.246;21.054;2024-01-30T06:16:18;42.88;;;16.77;;
30896;SDS011;64229;52.246;21.054;2024-01-30T06:18:46;48.30;;;18.17;;
30896;SDS011;64229;52.246;21.054;2024-01-30T06:21:12;48.20;;;16.90;;
30896;SDS011;64229;52.246;21.054;2024-01-30T06:23:38;48.45;;;18.23;;
30896;SDS011;64229;52.246;21.054;2024-01-30T06:26:03;59.72;;;18.52;;
30896;SDS011;64229;52.246;21.054;2024-01-30T06:28:28;47.15;;;18.15;;
30896;SDS011;64229;52.246;21.054;2024-01-30T06:30:54;47.00;;;17.08;;
30896;SDS011;64229;52.246;21.054;2024-01-30T06:33:19;50.90;;;18.00;;
30896;SDS011;64229;52.246;21.054;2024-01-30T06:35:44;45.33;;;16.98;;
30896;SDS011;64229;52.246;21.054;2024-01-30T06:38:11;40.78;;;16.40;;
30896;SDS011;64229;52.246;21.054;2024-01-30T06:40:36;43.55;;;17.13;;
30896;SDS011;64229;52.246;21.054;2024-01-30T06:43:02;46.55;;;16.40;;
30896;SDS011;64229;52.246;21.054;2024-01-30T06:45:29;40.88;;;16.08;;
30896;SDS011;64229;52.246;21.054;2024-01-30T06:47:54;43.88;;;16.50;;
30896;SDS011;64229;52.246;21.054;2024-01-30T06:50:20;47.03;;;18.48;;
30896;SDS011;64229;52.246;21.054;2024-01-30T06:52:45;40.47;;;16.42;;
30896;SDS011;64229;52.246;21.054;2024-01-30T06:55:11;55.22;;;17.48;;
30896;SDS011;64229;52.246;21.054;2024-01-30T06:57:36;47.03;;;17.38;;
30896;SDS011;64229;52.246;21.054;2024-01-30T07:00:01;42.95;;;16.73;;
30896;SDS011;64229;52.246;21.054;2024-01-30T07:02:27;46.78;;;17.85;;
30896;SDS011;64229;52.246;21.054;2024-01-30T07:04:53;43.58;;;18.33;;
30896;SDS011;64229;52.246;21.054;2024-01-30T07:07:18;43.08;;;17.60;;
30896;SDS011;64229;52.246;21.054;2024-01-30T07:09:43;46.15;;;17.30;;
30896;SDS011;64229;52.246;21.054;2024-01-30T07:12:09;44.20;;;16.30;;
30896;SDS011;64229;52.246;21.054;2024-01-30T07:14:35;44.53;;;16.88;;
30896;SDS011;64229;52.246;21.054;2024-01-30T07:17:00;44.42;;;16.35;;
30896;SDS011;64229;52.246;21.054;2024-01-30T07:19:26;44.88;;;17.48;;
30896;SDS011;64229;52.246;21.054;2024-01-30T07:21:51;43.85;;;16.05;;
30896;SDS011;64229;52.246;21.054;2024-01-30T07:24:16;44.17;;;17.60;;
30896;SDS011;64229;52.246;21.054;2024-01-30T07:26:42;45.28;;;17.15;;
30896;SDS011;64229;52.246;21.054;2024-01-30T07:29:07;47.78;;;18.17;;
30896;SDS011;64229;52.246;21.054;2024-01-30T07:31:32;42.80;;;16.40;;
30896;SDS011;64229;52.246;21.054;2024-01-30T07:33:58;47.10;;;18.05;;
30896;SDS011;64229;52.246;21.054;2024-01-30T07:36:23;40.65;;;17.25;;
30896;SDS011;64229;52.246;21.054;2024-01-30T07:38:48;47.00;;;16.92;;
30896;SDS011;64229;52.246;21.054;2024-01-30T07:41:14;52.30;;;18.60;;
30896;SDS011;64229;52.246;21.054;2024-01-30T07:43:39;40.28;;;16.42;;
30896;SDS011;64229;52.246;21.054;2024-01-30T07:46:04;48.25;;;18.10;;
30896;SDS011;64229;52.246;21.054;2024-01-30T07:48:31;42.75;;;17.05;;
30896;SDS011;64229;52.246;21.054;2024-01-30T07:50:58;46.75;;;18.48;;
30896;SDS011;64229;52.246;21.054;2024-01-30T07:53:24;47.78;;;17.25;;
30896;SDS011;64229;52.246;21.054;2024-01-30T07:55:49;45.42;;;18.42;;
30896;SDS011;64229;52.246;21.054;2024-01-30T07:58:14;41.45;;;16.73;;
30896;SDS011;64229;52.246;21.054;2024-01-30T08:00:40;42.45;;;15.70;;
30896;SDS011;64229;52.246;21.054;2024-01-30T08:03:05;43.05;;;16.45;;
30896;SDS011;64229;52.246;21.054;2024-01-30T08:05:30;48.08;;;16.73;;
30896;SDS011;64229;52.246;21.054;2024-01-30T08:07:55;39.08;;;15.40;;
30896;SDS011;64229;52.246;21.054;2024-01-30T08:10:21;39.70;;;15.63;;
30896;SDS011;64229;52.246;21.054;2024-01-30T08:12:46;45.00;;;17.13;;
30896;SDS011;64229;52.246;21.054;2024-01-30T08:15:11;39.67;;;16.05;;
30896;SDS011;64229;52.246;21.054;2024-01-30T08:17:38;37.13;;;15.75;;
30896;SDS011;64229;52.246;21.054;2024-01-30T08:20:03;40.63;;;17.13;;
30896;SDS011;64229;52.246;21.054;2024-01-30T08:22:29;43.15;;;15.63;;
30896;SDS011;64229;52.246;21.054;2024-01-30T08:24:55;40.83;;;15.85;;
30896;SDS011;64229;52.246;21.054;2024-01-30T08:27:20;37.75;;;15.93;;
30896;SDS011;64229;52.246;21.054;2024-01-30T08:29:45;40.40;;;15.50;;
30896;SDS011;64229;52.246;21.054;2024-01-30T08:32:11;40.63;;;15.80;;
30896;SDS011;64229;52.246;21.054;2024-01-30T08:34:36;40.00;;;15.48;;
30896;SDS011;64229;52.246;21.054;2024-01-30T08:37:02;32.80;;;15.00;;
30896;SDS011;64229;52.246;21.054;2024-01-30T08:39:28;33.38;;;14.70;;
30896;SDS011;64229;52.246;21.054;2024-01-30T08:41:53;33.42;;;13.63;;
30896;SDS011;64229;52.246;21.054;2024-01-30T08:44:18;40.47;;;14.63;;
30896;SDS011;64229;52.246;21.054;2024-01-30T08:46:44;44.65;;;15.75;;
30896;SDS011;64229;52.246;21.054;2024-01-30T08:49:13;35.22;;;13.85;;
30896;SDS011;64229;52.246;21.054;2024-01-30T08:51:41;40.40;;;15.15;;
30896;SDS011;64229;52.246;21.054;2024-01-30T08:54:06;35.47;;;14.18;;
30896;SDS011;64229;52.246;21.054;2024-01-30T08:56:31;34.83;;;13.50;;
30896;SDS011;64229;52.246;21.054;2024-01-30T08:58:56;34.33;;;14.05;;
30896;SDS011;64229;52.246;21.054;2024-01-30T09:01:22;36.45;;;13.43;;
30896;SDS011;64229;52.246;21.054;2024-01-30T09:03:47;32.53;;;13.80;;
30896;SDS011;64229;52.246;21.054;2024-01-30T09:06:12;33.47;;;13.50;;
30896;SDS011;64229;52.246;21.054;2024-01-30T09:08:38;38.13;;;14.05;;
30896;SDS011;64229;52.246;21.054;2024-01-30T09:11:10;31.42;;;13.02;;
30896;SDS011;64229;52.246;21.054;2024-01-30T09:13:36;36.33;;;13.07;;
30896;SDS011;64229;52.246;21.054;2024-01-30T09:16:02;35.53;;;13.10;;
30896;SDS011;64229;52.246;21.054;2024-01-30T09:18:28;32.67;;;13.10;;
30896;SDS011;64229;52.246;21.054;2024-01-30T09:20:53;34.55;;;14.55;;
30896;SDS011;64229;52.246;21.054;2024-01-30T09:23:18;30.67;;;12.88;;
30896;SDS011;64229;52.246;21.054;2024-01-30T09:25:44;32.60;;;14.25;;
30896;SDS011;64229;52.246;21.054;2024-01-30T09:28:10;33.50;;;12.60;;
30896;SDS011;64229;52.246;21.054;2024-01-30T09:30:35;32.30;;;13.18;;
30896;SDS011;64229;52.246;21.054;2024-01-30T09:33:00;36.30;;;14.35;;
30896;SDS011;64229;52.246;21.054;2024-01-30T09:35:25;33.08;;;12.40;;
30896;SDS011;64229;52.246;21.054;2024-01-30T09:37:51;29.10;;;11.90;;
30896;SDS011;64229;52.246;21.054;2024-01-30T09:40:19;34.55;;;12.90;;
30896;SDS011;64229;52.246;21.054;2024-01-30T09:42:48;30.08;;;13.02;;
30896;SDS011;64229;52.246;21.054;2024-01-30T09:45:15;36.10;;;13.10;;
30896;SDS011;64229;52.246;21.054;2024-01-30T09:47:43;34.25;;;12.45;;
30896;SDS011;64229;52.246;21.054;2024-01-30T09:50:10;27.52;;;12.20;;
30896;SDS011;64229;52.246;21.054;2024-01-30T09:52:36;36.05;;;13.32;;
30896;SDS011;64229;52.246;21.054;2024-01-30T09:55:02;32.17;;;12.75;;
30896;SDS011;64229;52.246;21.054;2024-01-30T09:57:28;34.00;;;12.57;;
30896;SDS011;64229;52.246;21.054;2024-01-30T09:59:53;33.85;;;12.25;;
30896;SDS011;64229;52.246;21.054;2024-01-30T10:02:19;29.02;;;11.98;;
30896;SDS011;64229;52.246;21.054;2024-01-30T10:04:44;28.88;;;11.98;;
30896;SDS011;64229;52.246;21.054;2024-01-30T10:07:12;30.63;;;11.88;;
30896;SDS011;64229;52.246;21.054;2024-01-30T10:09:39;29.90;;;11.45;;
30896;SDS011;64229;52.246;21.054;2024-01-30T10:12:04;26.48;;;11.65;;
30896;SDS011;64229;52.246;21.054;2024-01-30T10:14:30;28.23;;;10.82;;
30896;SDS011;64229;52.246;21.054;2024-01-30T10:16:57;25.77;;;10.60;;
30896;SDS011;64229;52.246;21.054;2024-01-30T10:19:22;26.10;;;9.85;;
30896;SDS011;64229;52.246;21.054;2024-01-30T10:21:48;24.00;;;10.30;;
30896;SDS011;64229;52.246;21.054;2024-01-30T10:24:13;28.38;;;10.57;;
30896;SDS011;64229;52.246;21.054;2024-01-30T10:26:38;27.05;;;10.93;;
30896;SDS011;64229;52.246;21.054;2024-01-30T10:29:04;25.25;;;11.00;;
30896;SDS011;64229;52.246;21.054;2024-01-30T10:31:29;26.35;;;10.48;;
30896;SDS011;64229;52.246;21.054;2024-01-30T10:33:55;26.55;;;10.82;;
30896;SDS011;64229;52.246;21.054;2024-01-30T10:36:20;31.20;;;12.98;;
30896;SDS011;64229;52.246;21.054;2024-01-30T10:38:52;28.30;;;10.77;;
30896;SDS011;64229;52.246;21.054;2024-01-30T10:41:25;24.33;;;10.80;;
30896;SDS011;64229;52.246;21.054;2024-01-30T10:43:58;28.60;;;11.35;;
30896;SDS011;64229;52.246;21.054;2024-01-30T10:46:30;24.63;;;10.77;;
30896;SDS011;64229;52.246;21.054;2024-01-30T10:48:57;27.23;;;11.85;;
30896;SDS011;64229;52.246;21.054;2024-01-30T10:51:24;25.23;;;10.05;;
30896;SDS011;64229;52.246;21.054;2024-01-30T10:53:51;27.45;;;11.20;;
30896;SDS011;64229;52.246;21.054;2024-01-30T10:56:18;26.70;;;11.25;;
30896;SDS011;64229;52.246;21.054;2024-01-30T10:58:46;28.70;;;10.27;;
30896;SDS011;64229;52.246;21.054;2024-01-30T11:01:12;24.85;;;11.05;;
30896;SDS011;64229;52.246;21.054;2024-01-30T11:03:38;26.88;;;11.65;;
30896;SDS011;64229;52.246;21.054;2024-01-30T11:06:04;24.73;;;10.50;;
30896;SDS011;64229;52.246;21.054;2024-01-30T11:08:31;28.75;;;11.77;;
30896;SDS011;64229;52.246;21.054;2024-01-30T11:10:57;20.88;;;9.25;;
30896;SDS011;64229;52.246;21.054;2024-01-30T11:13:29;33.00;;;11.20;;
30896;SDS011;64229;52.246;21.054;2024-01-30T11:15:55;29.55;;;10.52;;
30896;SDS011;64229;52.246;21.054;2024-01-30T11:18:25;24.13;;;10.10;;
30896;SDS011;64229;52.246;21.054;2024-01-30T11:20:51;26.17;;;11.05;;
30896;SDS011;64229;52.246;21.054;2024-01-30T11:23:17;24.98;;;10.88;;
30896;SDS011;64229;52.246;21.054;2024-01-30T11:25:43;28.38;;;10.75;;
30896;SDS011;64229;52.246;21.054;2024-01-30T11:28:13;31.33;;;10.85;;
30896;SDS011;64229;52.246;21.054;2024-01-30T11:30:40;30.40;;;10.55;;
30896;SDS011;64229;52.246;21.054;2024-01-30T11:33:09;25.77;;;10.75;;
30896;SDS011;64229;52.246;21.054;2024-01-30T11:35:42;23.13;;;10.13;;
30896;SDS011;64229;52.246;21.054;2024-01-30T11:38:13;26.55;;;10.85;;
30896;SDS011;64229;52.246;21.054;2024-01-30T11:40:39;28.50;;;10.70;;
30896;SDS011;64229;52.246;21.054;2024-01-30T11:43:06;27.25;;;11.55;;
30896;SDS011;64229;52.246;21.054;2024-01-30T11:45:32;22.55;;;10.98;;
30896;SDS011;64229;52.246;21.054;2024-01-30T11:47:59;27.13;;;11.02;;
30896;SDS011;64229;52.246;21.054;2024-01-30T11:50:33;24.65;;;10.45;;
30896;SDS011;64229;52.246;21.054;2024-01-30T11:52:59;23.52;;;10.38;;
30896;SDS011;64229;52.246;21.054;2024-01-30T11:55:25;21.95;;;10.30;;
30896;SDS011;64229;52.246;21.054;2024-01-30T11:57:51;23.73;;;10.30;;
30896;SDS011;64229;52.246;21.054;2024-01-30T12:00:19;28.90;;;10.13;;
30896;SDS011;64229;52.246;21.054;2024-01-30T12:02:49;25.30;;;10.27;;
30896;SDS011;64229;52.246;21.054;2024-01-30T12:05:15;23.75;;;9.68;;
30896;SDS011;64229;52.246;21.054;2024-01-30T12:07:43;26.85;;;9.88;;
30896;SDS011;64229;52.246;21.054;2024-01-30T12:10:09;25.15;;;9.98;;
30896;SDS011;64229;52.246;21.054;2024-01-30T12:12:36;25.33;;;9.88;;
30896;SDS011;64229;52.246;21.054;2024-01-30T12:15:02;22.13;;;9.65;;
30896;SDS011;64229;52.246;21.054;2024-01-30T12:17:31;25.70;;;10.27;;
30896;SDS011;64229;52.246;21.054;2024-01-30T12:22:29;28.08;;;11.10;;
30896;SDS011;64229;52.246;21.054;2024-01-30T12:24:55;24.20;;;10.68;;
30896;SDS011;64229;52.246;21.054;2024-01-30T12:27:20;26.77;;;10.47;;
30896;SDS011;64229;52.246;21.054;2024-01-30T12:29:45;24.38;;;10.57;;
30896;SDS011;64229;52.246;21.054;2024-01-30T12:32:15;24.83;;;11.17;;
30896;SDS011;64229;52.246;21.054;2024-01-30T12:34:41;21.65;;;11.05;;
30896;SDS011;64229;52.246;21.054;2024-01-30T12:37:06;24.20;;;9.63;;
30896;SDS011;64229;52.246;21.054;2024-01-30T12:39:34;18.83;;;8.95;;
30896;SDS011;64229;52.246;21.054;2024-01-30T12:42:00;27.30;;;10.65;;
30896;SDS011;64229;52.246;21.054;2024-01-30T12:44:25;25.17;;;11.00;;
30896;SDS011;64229;52.246;21.054;2024-01-30T12:46:51;21.50;;;9.63;;
30896;SDS011;64229;52.246;21.054;2024-01-30T12:49:16;27.60;;;10.20;;
30896;SDS011;64229;52.246;21.054;2024-01-30T12:51:41;23.80;;;10.35;;
30896;SDS011;64229;52.246;21.054;2024-01-30T12:54:07;25.27;;;10.02;;
30896;SDS011;64229;52.246;21.054;2024-01-30T12:56:32;20.02;;;9.57;;
30896;SDS011;64229;52.246;21.054;2024-01-30T12:58:58;22.85;;;9.00;;
30896;SDS011;64229;52.246;21.054;2024-01-30T13:01:23;27.73;;;10.57;;
30896;SDS011;64229;52.246;21.054;2024-01-30T13:03:49;25.77;;;10.63;;
30896;SDS011;64229;52.246;21.054;2024-01-30T13:06:14;31.20;;;10.95;;
30896;SDS011;64229;52.246;21.054;2024-01-30T13:08:39;22.42;;;9.82;;
30896;SDS011;64229;52.246;21.054;2024-01-30T13:11:04;22.27;;;10.20;;
30896;SDS011;64229;52.246;21.054;2024-01-30T13:13:30;22.00;;;10.13;;
30896;SDS011;64229;52.246;21.054;2024-01-30T13:15:55;21.63;;;9.43;;
30896;SDS011;64229;52.246;21.054;2024-01-30T13:18:20;17.93;;;9.00;;
30896;SDS011;64229;52.246;21.054;2024-01-30T13:20:45;25.50;;;9.77;;
30896;SDS011;64229;52.246;21.054;2024-01-30T13:23:11;20.42;;;9.15;;
30896;SDS011;64229;52.246;21.054;2024-01-30T13:25:36;22.93;;;9.23;;
30896;SDS011;64229;52.246;21.054;2024-01-30T13:28:01;24.83;;;9.50;;
30896;SDS011;64229;52.246;21.054;2024-01-30T13:30:27;21.75;;;9.73;;
30896;SDS011;64229;52.246;21.054;2024-01-30T13:32:53;24.75;;;10.77;;
30896;SDS011;64229;52.246;21.054;2024-01-30T13:35:19;24.50;;;9.60;;
30896;SDS011;64229;52.246;21.054;2024-01-30T13:37:44;22.95;;;10.00;;
30896;SDS011;64229;52.246;21.054;2024-01-30T13:40:10;24.70;;;10.13;;
30896;SDS011;64229;52.246;21.054;2024-01-30T13:42:35;26.88;;;10.50;;
30896;SDS011;64229;52.246;21.054;2024-01-30T13:45:01;21.83;;;9.60;;
30896;SDS011;64229;52.246;21.054;2024-01-30T13:47:26;21.48;;;8.95;;
30896;SDS011;64229;52.246;21.054;2024-01-30T13:49:52;23.33;;;9.43;;
30896;SDS011;64229;52.246;21.054;2024-01-30T13:52:18;22.77;;;9.15;;
30896;SDS011;64229;52.246;21.054;2024-01-30T13:54:43;20.73;;;8.38;;
30896;SDS011;64229;52.246;21.054;2024-01-30T13:57:08;26.25;;;9.88;;
30896;SDS011;64229;52.246;21.054;2024-01-30T13:59:34;26.15;;;9.90;;
30896;SDS011;64229;52.246;21.054;2024-01-30T14:01:59;23.10;;;10.03;;
30896;SDS011;64229;52.246;21.054;2024-01-30T14:04:24;25.97;;;9.47;;
30896;SDS011;64229;52.246;21.054;2024-01-30T14:06:50;17.92;;;8.88;;
30896;SDS011;64229;52.246;21.054;2024-01-30T14:09:15;21.50;;;9.38;;
30896;SDS011;64229;52.246;21.054;2024-01-30T14:11:41;25.38;;;10.43;;
30896;SDS011;64229;52.246;21.054;2024-01-30T14:14:06;25.83;;;9.35;;
30896;SDS011;64229;52.246;21.054;2024-01-30T14:16:32;20.47;;;8.97;;
30896;SDS011;64229;52.246;21.054;2024-01-30T14:18:57;39.67;;;10.15;;
30896;SDS011;64229;52.246;21.054;2024-01-30T14:21:22;23.27;;;9.47;;
30896;SDS011;64229;52.246;21.054;2024-01-30T14:23:49;22.00;;;9.55;;
30896;SDS011;64229;52.246;21.054;2024-01-30T14:26:14;23.52;;;10.05;;
30896;SDS011;64229;52.246;21.054;2024-01-30T14:28:39;31.50;;;11.03;;
30896;SDS011;64229;52.246;21.054;2024-01-30T14:31:04;21.17;;;10.15;;
30896;SDS011;64229;52.246;21.054;2024-01-30T14:33:30;21.92;;;10.30;;
30896;SDS011;64229;52.246;21.054;2024-01-30T14:35:56;21.63;;;10.15;;
30896;SDS011;64229;52.246;21.054;2024-01-30T14:38:21;30.58;;;10.38;;
30896;SDS011;64229;52.246;21.054;2024-01-30T14:40:46;23.17;;;10.13;;
30896;SDS011;64229;52.246;21.054;2024-01-30T14:43:11;20.75;;;9.73;;
30896;SDS011;64229;52.246;21.054;2024-01-30T14:45:37;27.63;;;11.63;;
30896;SDS011;64229;52.246;21.054;2024-01-30T14:48:02;27.37;;;10.40;;
30896;SDS011;64229;52.246;21.054;2024-01-30T14:50:28;26.05;;;10.10;;
30896;SDS011;64229;52.246;21.054;2024-01-30T14:52:53;24.88;;;10.77;;
30896;SDS011;64229;52.246;21.054;2024-01-30T14:55:19;23.73;;;10.57;;
30896;SDS011;64229;52.246;21.054;2024-01-30T14:57:44;22.45;;;10.23;;
30896;SDS011;64229;52.246;21.054;2024-01-30T15:00:11;23.05;;;9.90;;
30896;SDS011;64229;52.246;21.054;2024-01-30T15:02:37;25.10;;;10.38;;
30896;SDS011;64229;52.246;21.054;2024-01-30T15:05:02;29.75;;;10.35;;
30896;SDS011;64229;52.246;21.054;2024-01-30T15:07:27;25.05;;;10.32;;